sensor_id;sensor_type;location;lat;lon;timestamp;pressure;altitude;pressure_sealevel;temperature;humidity
66627;BME280;53498;50.422;14.912;2022-08-03T00:01:57;99221.66;;;19.55;74.94
66627;BME280;53498;50.422;14.912;2022-08-03T00:04:23;99222.53;;;19.55;76.48
66627;BME280;53498;50.422;14.912;2022-08-03T00:06:49;99217.34;;;19.52;75.31
66627;BME280;53498;50.422;14.912;2022-08-03T00:09:14;99216.34;;;19.56;76.20
66627;BME280;53498;50.422;14.912;2022-08-03T00:11:40;99217.69;;;19.43;75.86
66627;BME280;53498;50.422;14.912;2022-08-03T00:14:05;99213.09;;;19.48;75.91
66627;BME280;53498;50.422;14.912;2022-08-03T00:16:31;99216.47;;;19.53;76.49
66627;BME280;53498;50.422;14.912;2022-08-03T00:18:57;99211.19;;;19.53;76.35
66627;BME280;53498;50.422;14.912;2022-08-03T00:21:22;99220.00;;;19.52;77.59
66627;BME280;53498;50.422;14.912;2022-08-03T00:23:48;99210.25;;;19.54;76.87
66627;BME280;53498;50.422;14.912;2022-08-03T00:26:14;99213.97;;;19.49;77.32
66627;BME280;53498;50.422;14.912;2022-08-03T00:28:39;99210.34;;;19.51;76.71
66627;BME280;53498;50.422;14.912;2022-08-03T00:31:05;99214.84;;;19.49;75.51
66627;BME280;53498;50.422;14.912;2022-08-03T00:33:31;99206.59;;;19.58;74.67
66627;BME280;53498;50.422;14.912;2022-08-03T00:35:59;99205.16;;;19.50;74.03
66627;BME280;53498;50.422;14.912;2022-08-03T00:38:25;99205.91;;;19.53;72.69
66627;BME280;53498;50.422;14.912;2022-08-03T00:40:51;99204.16;;;19.52;74.15
66627;BME280;53498;50.422;14.912;2022-08-03T00:43:16;99210.22;;;19.56;73.72
66627;BME280;53498;50.422;14.912;2022-08-03T00:45:42;99218.81;;;19.61;73.14
66627;BME280;53498;50.422;14.912;2022-08-03T00:48:10;99217.78;;;19.67;73.97
66627;BME280;53498;50.422;14.912;2022-08-03T00:50:41;99217.97;;;19.60;71.58
66627;BME280;53498;50.422;14.912;2022-08-03T00:53:08;99213.44;;;19.66;71.53
66627;BME280;53498;50.422;14.912;2022-08-03T00:55:37;99201.09;;;19.66;71.21
66627;BME280;53498;50.422;14.912;2022-08-03T00:58:03;99208.03;;;19.69;72.78
66627;BME280;53498;50.422;14.912;2022-08-03T01:00:34;99216.06;;;19.66;73.21
66627;BME280;53498;50.422;14.912;2022-08-03T01:03:01;99214.41;;;19.61;73.36
66627;BME280;53498;50.422;14.912;2022-08-03T01:05:28;99214.88;;;19.48;73.07
66627;BME280;53498;50.422;14.912;2022-08-03T01:10:51;99214.75;;;19.26;74.99
66627;BME280;53498;50.422;14.912;2022-08-03T01:16:18;99219.03;;;19.02;77.71
66627;BME280;53498;50.422;14.912;2022-08-03T01:22:05;99212.09;;;18.99;76.75
66627;BME280;53498;50.422;14.912;2022-08-03T01:27:30;99216.66;;;18.94;77.12
66627;BME280;53498;50.422;14.912;2022-08-03T01:30:05;99211.38;;;18.94;77.49
66627;BME280;53498;50.422;14.912;2022-08-03T01:32:45;99211.00;;;18.78;77.80
66627;BME280;53498;50.422;14.912;2022-08-03T01:35:15;99206.56;;;18.79;77.81
66627;BME280;53498;50.422;14.912;2022-08-03T01:37:46;99209.16;;;18.80;77.70
66627;BME280;53498;50.422;14.912;2022-08-03T01:40:15;99207.25;;;18.85;78.44
66627;BME280;53498;50.422;14.912;2022-08-03T01:42:43;99210.81;;;18.84;78.06
66627;BME280;53498;50.422;14.912;2022-08-03T01:45:12;99208.47;;;18.73;78.61
66627;BME280;53498;50.422;14.912;2022-08-03T01:47:40;99210.50;;;18.64;78.68
66627;BME280;53498;50.422;14.912;2022-08-03T01:50:07;99205.31;;;18.62;80.62
66627;BME280;53498;50.422;14.912;2022-08-03T01:52:37;99211.34;;;18.66;79.25
66627;BME280;53498;50.422;14.912;2022-08-03T01:55:04;99207.94;;;18.62;78.82
66627;BME280;53498;50.422;14.912;2022-08-03T01:57:32;99210.50;;;18.64;79.34
66627;BME280;53498;50.422;14.912;2022-08-03T02:00:06;99209.75;;;18.60;80.09
66627;BME280;53498;50.422;14.912;2022-08-03T02:02:36;99207.16;;;18.59;81.07
66627;BME280;53498;50.422;14.912;2022-08-03T02:05:05;99205.50;;;18.56;80.88
66627;BME280;53498;50.422;14.912;2022-08-03T02:07:32;99206.50;;;18.52;79.56
66627;BME280;53498;50.422;14.912;2022-08-03T02:10:00;99208.41;;;18.47;80.11
66627;BME280;53498;50.422;14.912;2022-08-03T02:12:28;99211.94;;;18.46;80.05
66627;BME280;53498;50.422;14.912;2022-08-03T02:14:56;99202.47;;;18.39;79.18
66627;BME280;53498;50.422;14.912;2022-08-03T02:17:25;99203.41;;;18.38;79.94
66627;BME280;53498;50.422;14.912;2022-08-03T02:19:53;99208.56;;;18.41;80.90
66627;BME280;53498;50.422;14.912;2022-08-03T02:22:24;99210.34;;;18.40;81.33
66627;BME280;53498;50.422;14.912;2022-08-03T02:24:50;99199.94;;;18.36;79.40
66627;BME280;53498;50.422;14.912;2022-08-03T02:27:19;99203.34;;;18.39;79.74
66627;BME280;53498;50.422;14.912;2022-08-03T02:29:48;99199.06;;;18.37;80.89
66627;BME280;53498;50.422;14.912;2022-08-03T02:32:17;99193.78;;;18.37;80.38
66627;BME280;53498;50.422;14.912;2022-08-03T02:34:46;99196.44;;;18.35;80.57
66627;BME280;53498;50.422;14.912;2022-08-03T02:37:13;99199.22;;;18.31;80.79
66627;BME280;53498;50.422;14.912;2022-08-03T02:39:42;99199.22;;;18.31;80.52
66627;BME280;53498;50.422;14.912;2022-08-03T02:42:09;99190.69;;;18.22;79.91
66627;BME280;53498;50.422;14.912;2022-08-03T02:44:36;99188.22;;;18.16;81.83
66627;BME280;53498;50.422;14.912;2022-08-03T02:47:06;99194.50;;;18.12;80.85
66627;BME280;53498;50.422;14.912;2022-08-03T02:49:33;99197.38;;;18.03;80.44
66627;BME280;53498;50.422;14.912;2022-08-03T02:52:00;99193.28;;;17.93;80.84
66627;BME280;53498;50.422;14.912;2022-08-03T02:54:27;99195.00;;;17.94;81.59
66627;BME280;53498;50.422;14.912;2022-08-03T02:56:55;99190.66;;;17.93;81.76
66627;BME280;53498;50.422;14.912;2022-08-03T02:59:22;99197.75;;;17.89;80.83
66627;BME280;53498;50.422;14.912;2022-08-03T03:01:48;99197.16;;;17.79;81.32
66627;BME280;53498;50.422;14.912;2022-08-03T03:04:15;99196.97;;;17.86;82.79
66627;BME280;53498;50.422;14.912;2022-08-03T03:06:41;99197.06;;;17.83;81.23
66627;BME280;53498;50.422;14.912;2022-08-03T03:09:08;99192.72;;;17.82;81.75
66627;BME280;53498;50.422;14.912;2022-08-03T03:11:37;99196.97;;;17.86;82.83
66627;BME280;53498;50.422;14.912;2022-08-03T03:14:03;99198.84;;;17.82;82.03
66627;BME280;53498;50.422;14.912;2022-08-03T03:16:29;99200.59;;;17.82;82.23
66627;BME280;53498;50.422;14.912;2022-08-03T03:18:56;99201.53;;;17.80;82.48
66627;BME280;53498;50.422;14.912;2022-08-03T03:21:22;99203.22;;;17.83;81.35
66627;BME280;53498;50.422;14.912;2022-08-03T03:23:49;99203.38;;;17.77;82.71
66627;BME280;53498;50.422;14.912;2022-08-03T03:26:15;99210.66;;;17.66;81.82
66627;BME280;53498;50.422;14.912;2022-08-03T03:28:41;99208.22;;;17.58;82.36
66627;BME280;53498;50.422;14.912;2022-08-03T03:31:07;99206.69;;;17.49;82.49
66627;BME280;53498;50.422;14.912;2022-08-03T03:33:33;99212.75;;;17.53;82.25
66627;BME280;53498;50.422;14.912;2022-08-03T03:35:59;99214.50;;;17.52;82.53
66627;BME280;53498;50.422;14.912;2022-08-03T03:38:25;99214.28;;;17.62;82.38
66627;BME280;53498;50.422;14.912;2022-08-03T03:40:54;99216.06;;;17.60;82.75
66627;BME280;53498;50.422;14.912;2022-08-03T03:43:21;99216.94;;;17.60;81.81
66627;BME280;53498;50.422;14.912;2022-08-03T03:45:48;99213.38;;;17.61;82.61
66627;BME280;53498;50.422;14.912;2022-08-03T03:48:14;99218.56;;;17.64;82.99
66627;BME280;53498;50.422;14.912;2022-08-03T03:50:40;99214.31;;;17.60;82.37
66627;BME280;53498;50.422;14.912;2022-08-03T03:53:08;99218.56;;;17.64;81.76
66627;BME280;53498;50.422;14.912;2022-08-03T03:55:36;99218.78;;;17.56;82.87
66627;BME280;53498;50.422;14.912;2022-08-03T03:58:01;99218.75;;;17.58;83.42
66627;BME280;53498;50.422;14.912;2022-08-03T04:00:28;99216.28;;;17.52;83.34
66627;BME280;53498;50.422;14.912;2022-08-03T04:02:54;99221.72;;;17.44;83.86
66627;BME280;53498;50.422;14.912;2022-08-03T04:05:20;99221.81;;;17.41;83.20
66627;BME280;53498;50.422;14.912;2022-08-03T04:08:11;99217.41;;;17.42;82.67
66627;BME280;53498;50.422;14.912;2022-08-03T04:11:13;99216.47;;;17.44;82.63
66627;BME280;53498;50.422;14.912;2022-08-03T04:16:27;99224.97;;;17.54;82.96
66627;BME280;53498;50.422;14.912;2022-08-03T04:19:03;99231.94;;;17.56;82.87
66627;BME280;53498;50.422;14.912;2022-08-03T04:21:31;99233.56;;;17.61;83.37
66627;BME280;53498;50.422;14.912;2022-08-03T04:24:00;99232.59;;;17.65;82.58
66627;BME280;53498;50.422;14.912;2022-08-03T04:26:29;99237.56;;;17.75;83.38
66627;BME280;53498;50.422;14.912;2022-08-03T04:28:58;99239.34;;;17.75;83.33
66627;BME280;53498;50.422;14.912;2022-08-03T04:31:26;99242.72;;;17.82;82.55
66627;BME280;53498;50.422;14.912;2022-08-03T04:33:53;99244.31;;;17.87;82.37
66627;BME280;53498;50.422;14.912;2022-08-03T04:36:23;99247.59;;;17.95;82.84
66627;BME280;53498;50.422;14.912;2022-08-03T04:39:00;99243.75;;;18.09;81.66
66627;BME280;53498;50.422;14.912;2022-08-03T04:41:27;99247.78;;;18.20;81.98
66627;BME280;53498;50.422;14.912;2022-08-03T04:43:56;99245.81;;;18.29;80.98
66627;BME280;53498;50.422;14.912;2022-08-03T04:46:25;99244.78;;;18.34;80.40
66627;BME280;53498;50.422;14.912;2022-08-03T04:48:53;99245.44;;;18.41;78.83
66627;BME280;53498;50.422;14.912;2022-08-03T04:51:19;99245.94;;;18.54;77.66
66627;BME280;53498;50.422;14.912;2022-08-03T04:53:45;99247.59;;;18.58;77.96
66627;BME280;53498;50.422;14.912;2022-08-03T04:56:11;99239.31;;;18.70;76.68
66627;BME280;53498;50.422;14.912;2022-08-03T04:58:36;99253.75;;;18.88;76.81
66627;BME280;53498;50.422;14.912;2022-08-03T05:01:02;99251.41;;;19.05;74.31
66627;BME280;53498;50.422;14.912;2022-08-03T05:03:28;99253.53;;;19.22;75.22
66627;BME280;53498;50.422;14.912;2022-08-03T05:05:54;99247.97;;;19.31;71.96
66627;BME280;53498;50.422;14.912;2022-08-03T05:08:19;99240.13;;;19.55;70.61
66627;BME280;53498;50.422;14.912;2022-08-03T05:10:46;99239.00;;;19.88;70.74
66627;BME280;53498;50.422;14.912;2022-08-03T05:13:11;99234.34;;;19.97;69.05
66627;BME280;53498;50.422;14.912;2022-08-03T05:15:38;99237.63;;;20.03;68.88
66627;BME280;53498;50.422;14.912;2022-08-03T05:18:04;99241.50;;;20.18;67.11
66627;BME280;53498;50.422;14.912;2022-08-03T05:20:29;99237.84;;;19.97;66.85
66627;BME280;53498;50.422;14.912;2022-08-03T05:22:55;99245.47;;;20.05;68.07
66627;BME280;53498;50.422;14.912;2022-08-03T05:25:22;99241.09;;;20.29;68.23
66627;BME280;53498;50.422;14.912;2022-08-03T05:27:47;99247.09;;;20.32;66.71
66627;BME280;53498;50.422;14.912;2022-08-03T05:30:13;99245.63;;;20.49;66.43
66627;BME280;53498;50.422;14.912;2022-08-03T05:32:39;99244.97;;;20.42;66.70
66627;BME280;53498;50.422;14.912;2022-08-03T05:35:05;99248.22;;;20.50;67.48
66627;BME280;53498;50.422;14.912;2022-08-03T05:37:31;99242.97;;;20.49;66.21
66627;BME280;53498;50.422;14.912;2022-08-03T05:39:56;99242.72;;;20.56;66.08
66627;BME280;53498;50.422;14.912;2022-08-03T05:42:22;99250.25;;;20.67;65.13
66627;BME280;53498;50.422;14.912;2022-08-03T05:44:49;99242.03;;;20.75;65.14
66627;BME280;53498;50.422;14.912;2022-08-03T05:47:15;99250.63;;;20.80;64.22
66627;BME280;53498;50.422;14.912;2022-08-03T05:49:40;99252.88;;;20.91;64.62
66627;BME280;53498;50.422;14.912;2022-08-03T05:52:12;99251.00;;;20.93;63.80
66627;BME280;53498;50.422;14.912;2022-08-03T05:54:38;99251.50;;;21.02;63.94
66627;BME280;53498;50.422;14.912;2022-08-03T05:57:03;99255.69;;;21.30;63.82
66627;BME280;53498;50.422;14.912;2022-08-03T05:59:29;99254.78;;;21.74;62.52
66627;BME280;53498;50.422;14.912;2022-08-03T06:01:54;99244.16;;;22.16;61.30
66627;BME280;53498;50.422;14.912;2022-08-03T06:04:20;99247.34;;;22.43;59.61
66627;BME280;53498;50.422;14.912;2022-08-03T06:06:45;99247.63;;;22.56;58.81
66627;BME280;53498;50.422;14.912;2022-08-03T06:09:11;99247.91;;;22.87;59.03
66627;BME280;53498;50.422;14.912;2022-08-03T06:11:38;99243.66;;;23.21;56.93
66627;BME280;53498;50.422;14.912;2022-08-03T06:14:04;99249.31;;;23.50;56.50
66627;BME280;53498;50.422;14.912;2022-08-03T06:16:30;99236.91;;;24.69;53.19
66627;BME280;53498;50.422;14.912;2022-08-03T06:18:56;99238.56;;;26.10;49.49
66627;BME280;53498;50.422;14.912;2022-08-03T06:21:21;99244.63;;;26.97;46.57
66627;BME280;53498;50.422;14.912;2022-08-03T06:23:47;99234.41;;;28.11;43.50
66627;BME280;53498;50.422;14.912;2022-08-03T06:26:13;99236.16;;;27.72;43.71
66627;BME280;53498;50.422;14.912;2022-08-03T06:28:38;99247.91;;;26.88;45.69
66627;BME280;53498;50.422;14.912;2022-08-03T06:31:05;99240.41;;;26.38;46.30
66627;BME280;53498;50.422;14.912;2022-08-03T06:33:31;99242.47;;;25.44;49.23
66627;BME280;53498;50.422;14.912;2022-08-03T06:35:56;99245.53;;;25.22;48.27
66627;BME280;53498;50.422;14.912;2022-08-03T06:38:22;99244.78;;;25.20;49.19
66627;BME280;53498;50.422;14.912;2022-08-03T06:40:47;99247.22;;;25.07;49.68
66627;BME280;53498;50.422;14.912;2022-08-03T06:43:13;99247.16;;;25.08;51.19
66627;BME280;53498;50.422;14.912;2022-08-03T06:45:40;99251.31;;;25.44;49.84
66627;BME280;53498;50.422;14.912;2022-08-03T06:48:07;99251.31;;;25.44;50.07
66627;BME280;53498;50.422;14.912;2022-08-03T06:50:34;99254.78;;;25.46;49.63
66627;BME280;53498;50.422;14.912;2022-08-03T06:53:00;99253.94;;;25.30;50.16
66627;BME280;53498;50.422;14.912;2022-08-03T06:55:26;99256.00;;;25.71;49.20
66627;BME280;53498;50.422;14.912;2022-08-03T06:57:52;99250.84;;;25.68;49.76
66627;BME280;53498;50.422;14.912;2022-08-03T07:00:18;99253.88;;;25.61;48.76
66627;BME280;53498;50.422;14.912;2022-08-03T07:02:44;99258.06;;;25.66;48.70
66627;BME280;53498;50.422;14.912;2022-08-03T07:05:10;99255.94;;;25.56;48.41
66627;BME280;53498;50.422;14.912;2022-08-03T07:07:37;99255.25;;;25.53;48.80
66627;BME280;53498;50.422;14.912;2022-08-03T07:10:03;99261.09;;;25.29;49.20
66627;BME280;53498;50.422;14.912;2022-08-03T07:12:31;99261.41;;;25.39;49.63
66627;BME280;53498;50.422;14.912;2022-08-03T07:14:58;99249.53;;;25.29;50.02
66627;BME280;53498;50.422;14.912;2022-08-03T07:17:24;99250.63;;;25.56;49.67
66627;BME280;53498;50.422;14.912;2022-08-03T07:19:49;99256.81;;;25.41;48.45
66627;BME280;53498;50.422;14.912;2022-08-03T07:22:15;99252.56;;;25.69;48.39
66627;BME280;53498;50.422;14.912;2022-08-03T07:24:40;99263.72;;;25.45;48.93
66627;BME280;53498;50.422;14.912;2022-08-03T07:27:07;99250.63;;;25.56;50.34
66627;BME280;53498;50.422;14.912;2022-08-03T07:29:35;99257.50;;;25.91;48.68
66627;BME280;53498;50.422;14.912;2022-08-03T07:32:02;99251.28;;;26.20;47.72
66627;BME280;53498;50.422;14.912;2022-08-03T07:34:28;99246.22;;;26.30;47.76
66627;BME280;53498;50.422;14.912;2022-08-03T07:36:58;99245.63;;;26.25;48.03
66627;BME280;53498;50.422;14.912;2022-08-03T07:39:24;99250.94;;;25.96;47.48
66627;BME280;53498;50.422;14.912;2022-08-03T07:41:50;99254.41;;;26.27;47.88
66627;BME280;53498;50.422;14.912;2022-08-03T07:44:19;99246.97;;;26.46;47.59
66627;BME280;53498;50.422;14.912;2022-08-03T07:46:45;99249.78;;;25.86;47.32
66627;BME280;53498;50.422;14.912;2022-08-03T07:49:11;99246.22;;;26.44;47.65
66627;BME280;53498;50.422;14.912;2022-08-03T07:51:37;99250.25;;;26.51;46.68
66627;BME280;53498;50.422;14.912;2022-08-03T07:54:03;99247.94;;;26.60;47.16
66627;BME280;53498;50.422;14.912;2022-08-03T07:56:29;99246.44;;;26.56;46.66
66627;BME280;53498;50.422;14.912;2022-08-03T07:58:55;99250.44;;;26.48;47.23
66627;BME280;53498;50.422;14.912;2022-08-03T08:01:21;99247.09;;;26.59;47.07
66627;BME280;53498;50.422;14.912;2022-08-03T08:03:47;99240.44;;;26.52;47.10
66627;BME280;53498;50.422;14.912;2022-08-03T08:06:13;99252.50;;;26.29;47.14
66627;BME280;53498;50.422;14.912;2022-08-03T08:08:39;99246.72;;;26.51;47.32
66627;BME280;53498;50.422;14.912;2022-08-03T08:11:05;99247.47;;;26.53;47.26
66627;BME280;53498;50.422;14.912;2022-08-03T08:13:31;99249.25;;;26.81;46.54
66627;BME280;53498;50.422;14.912;2022-08-03T08:15:57;99246.31;;;26.71;46.84
66627;BME280;53498;50.422;14.912;2022-08-03T08:18:23;99248.16;;;26.98;47.22
66627;BME280;53498;50.422;14.912;2022-08-03T08:20:49;99241.91;;;26.85;47.25
66627;BME280;53498;50.422;14.912;2022-08-03T08:23:14;99247.47;;;27.09;46.14
66627;BME280;53498;50.422;14.912;2022-08-03T08:25:41;99246.00;;;26.90;47.09
66627;BME280;53498;50.422;14.912;2022-08-03T08:28:07;99248.78;;;27.30;46.23
66627;BME280;53498;50.422;14.912;2022-08-03T08:30:32;99242.34;;;27.06;46.30
66627;BME280;53498;50.422;14.912;2022-08-03T08:32:58;99230.31;;;26.43;47.19
66627;BME280;53498;50.422;14.912;2022-08-03T08:35:26;99239.06;;;26.45;47.38
66627;BME280;53498;50.422;14.912;2022-08-03T08:37:54;99236.69;;;26.69;47.87
66627;BME280;53498;50.422;14.912;2022-08-03T08:40:20;99240.53;;;26.92;47.58
66627;BME280;53498;50.422;14.912;2022-08-03T08:42:47;99235.91;;;26.67;47.27
66627;BME280;53498;50.422;14.912;2022-08-03T08:45:12;99228.47;;;26.29;47.62
66627;BME280;53498;50.422;14.912;2022-08-03T08:47:43;99236.63;;;26.56;48.13
66627;BME280;53498;50.422;14.912;2022-08-03T08:50:09;99237.00;;;27.06;47.49
66627;BME280;53498;50.422;14.912;2022-08-03T08:52:40;99242.31;;;27.20;46.84
66627;BME280;53498;50.422;14.912;2022-08-03T08:55:09;99235.53;;;27.41;46.31
66627;BME280;53498;50.422;14.912;2022-08-03T08:57:37;99226.19;;;27.49;45.59
66627;BME280;53498;50.422;14.912;2022-08-03T09:00:08;99236.16;;;27.32;45.70
66627;BME280;53498;50.422;14.912;2022-08-03T09:02:41;99223.94;;;27.55;46.09
66627;BME280;53498;50.422;14.912;2022-08-03T09:05:14;99218.34;;;27.98;45.20
66627;BME280;53498;50.422;14.912;2022-08-03T09:07:45;99224.72;;;27.70;44.69
66627;BME280;53498;50.422;14.912;2022-08-03T09:10:12;99229.41;;;27.66;45.31
66627;BME280;53498;50.422;14.912;2022-08-03T09:12:41;99217.50;;;27.98;44.75
66627;BME280;53498;50.422;14.912;2022-08-03T09:15:21;99214.31;;;27.80;44.28
66627;BME280;53498;50.422;14.912;2022-08-03T09:17:48;99207.56;;;28.00;44.41
66627;BME280;53498;50.422;14.912;2022-08-03T09:20:14;99212.09;;;27.59;43.94
66627;BME280;53498;50.422;14.912;2022-08-03T09:23:05;99211.63;;;27.40;45.37
66627;BME280;53498;50.422;14.912;2022-08-03T09:25:37;99209.56;;;27.71;44.98
66627;BME280;53498;50.422;14.912;2022-08-03T09:28:14;99203.63;;;27.93;45.52
66627;BME280;53498;50.422;14.912;2022-08-03T09:30:42;99202.09;;;28.14;43.28
66627;BME280;53498;50.422;14.912;2022-08-03T09:33:10;99212.03;;;28.37;42.96
66627;BME280;53498;50.422;14.912;2022-08-03T09:35:46;99209.28;;;28.52;43.43
66627;BME280;53498;50.422;14.912;2022-08-03T09:38:16;99203.91;;;28.52;40.99
66627;BME280;53498;50.422;14.912;2022-08-03T09:40:42;99199.81;;;28.59;41.77
66627;BME280;53498;50.422;14.912;2022-08-03T09:43:09;99201.78;;;28.44;41.92
66627;BME280;53498;50.422;14.912;2022-08-03T09:45:35;99205.06;;;28.48;42.85
66627;BME280;53498;50.422;14.912;2022-08-03T09:48:27;99202.81;;;28.54;41.47
66627;BME280;53498;50.422;14.912;2022-08-03T09:51:03;99205.91;;;28.61;41.40
66627;BME280;53498;50.422;14.912;2022-08-03T09:53:28;99199.63;;;28.49;42.73
66627;BME280;53498;50.422;14.912;2022-08-03T09:55:59;99192.81;;;28.69;41.53
66627;BME280;53498;50.422;14.912;2022-08-03T09:58:27;99193.47;;;28.73;41.20
66627;BME280;53498;50.422;14.912;2022-08-03T10:01:02;99196.03;;;28.74;40.00
66627;BME280;53498;50.422;14.912;2022-08-03T10:03:31;99186.97;;;29.01;41.32
66627;BME280;53498;50.422;14.912;2022-08-03T10:05:57;99202.28;;;28.99;40.00
66627;BME280;53498;50.422;14.912;2022-08-03T10:08:23;99196.38;;;28.94;41.06
66627;BME280;53498;50.422;14.912;2022-08-03T10:10:50;99194.47;;;28.96;41.00
66627;BME280;53498;50.422;14.912;2022-08-03T10:13:20;99193.41;;;28.86;40.70
66627;BME280;53498;50.422;14.912;2022-08-03T10:15:52;99186.06;;;29.00;40.34
66627;BME280;53498;50.422;14.912;2022-08-03T10:18:18;99191.25;;;28.54;41.46
66627;BME280;53498;50.422;14.912;2022-08-03T10:21:00;99187.25;;;28.72;41.22
66627;BME280;53498;50.422;14.912;2022-08-03T10:23:28;99185.06;;;29.14;41.26
66627;BME280;53498;50.422;14.912;2022-08-03T10:26:01;99191.41;;;29.13;39.92
66627;BME280;53498;50.422;14.912;2022-08-03T10:28:33;99180.16;;;28.84;39.03
66627;BME280;53498;50.422;14.912;2022-08-03T10:31:00;99179.13;;;28.98;40.99
66627;BME280;53498;50.422;14.912;2022-08-03T10:33:29;99181.38;;;29.04;40.17
66627;BME280;53498;50.422;14.912;2022-08-03T10:36:01;99180.00;;;28.62;40.61
66627;BME280;53498;50.422;14.912;2022-08-03T10:38:37;99187.47;;;28.69;42.24
66627;BME280;53498;50.422;14.912;2022-08-03T10:41:03;99181.69;;;28.99;41.25
66627;BME280;53498;50.422;14.912;2022-08-03T10:43:37;99171.41;;;29.06;39.90
66627;BME280;53498;50.422;14.912;2022-08-03T10:46:06;99175.16;;;29.03;39.83
66627;BME280;53498;50.422;14.912;2022-08-03T10:48:34;99179.22;;;29.09;40.78
66627;BME280;53498;50.422;14.912;2022-08-03T10:51:00;99175.19;;;28.91;41.07
66627;BME280;53498;50.422;14.912;2022-08-03T10:53:40;99174.34;;;29.38;40.55
66627;BME280;53498;50.422;14.912;2022-08-03T10:59:16;99165.22;;;29.87;39.16
66627;BME280;53498;50.422;14.912;2022-08-03T11:01:50;99162.78;;;29.95;38.14
66627;BME280;53498;50.422;14.912;2022-08-03T11:04:21;99152.09;;;29.60;37.10
66627;BME280;53498;50.422;14.912;2022-08-03T11:09:41;99151.44;;;29.81;36.75
66627;BME280;53498;50.422;14.912;2022-08-03T11:12:27;99153.28;;;29.91;37.05
66627;BME280;53498;50.422;14.912;2022-08-03T11:14:54;99151.22;;;30.06;36.31
66627;BME280;53498;50.422;14.912;2022-08-03T11:17:20;99147.53;;;29.85;35.98
66627;BME280;53498;50.422;14.912;2022-08-03T11:19:51;99143.63;;;29.78;36.92
66627;BME280;53498;50.422;14.912;2022-08-03T11:22:18;99151.22;;;29.84;36.46
66627;BME280;53498;50.422;14.912;2022-08-03T11:30:08;99150.09;;;29.86;37.04
66627;BME280;53498;50.422;14.912;2022-08-03T11:35:13;99145.84;;;30.17;36.44
66627;BME280;53498;50.422;14.912;2022-08-03T11:40:36;99142.09;;;30.20;36.44
66627;BME280;53498;50.422;14.912;2022-08-03T11:43:05;99137.47;;;30.22;36.35
66627;BME280;53498;50.422;14.912;2022-08-03T11:45:31;99132.94;;;30.23;36.53
66627;BME280;53498;50.422;14.912;2022-08-03T11:47:59;99138.28;;;30.00;35.55
66627;BME280;53498;50.422;14.912;2022-08-03T11:50:35;99131.09;;;30.01;35.01
66627;BME280;53498;50.422;14.912;2022-08-03T11:53:01;99135.47;;;30.13;35.74
66627;BME280;53498;50.422;14.912;2022-08-03T11:55:29;99127.34;;;30.26;34.90
66627;BME280;53498;50.422;14.912;2022-08-03T11:58:01;99118.66;;;29.88;35.84
66627;BME280;53498;50.422;14.912;2022-08-03T12:00:29;99127.28;;;30.14;35.61
66627;BME280;53498;50.422;14.912;2022-08-03T12:03:01;99118.91;;;30.19;34.72
66627;BME280;53498;50.422;14.912;2022-08-03T12:05:39;99119.00;;;30.17;35.37
66627;BME280;53498;50.422;14.912;2022-08-03T12:08:05;99125.34;;;30.39;34.64
66627;BME280;53498;50.422;14.912;2022-08-03T12:10:32;99123.31;;;30.86;34.54
66627;BME280;53498;50.422;14.912;2022-08-03T12:12:59;99128.66;;;30.97;33.81
66627;BME280;53498;50.422;14.912;2022-08-03T12:15:27;99123.81;;;30.91;34.15
66627;BME280;53498;50.422;14.912;2022-08-03T12:17:53;99119.88;;;30.95;34.30
66627;BME280;53498;50.422;14.912;2022-08-03T12:20:22;99114.81;;;31.02;33.25
66627;BME280;53498;50.422;14.912;2022-08-03T12:22:48;99106.13;;;30.77;33.11
66627;BME280;53498;50.422;14.912;2022-08-03T12:25:22;99104.84;;;30.49;33.32
66627;BME280;53498;50.422;14.912;2022-08-03T12:27:48;99107.94;;;30.77;33.67
66627;BME280;53498;50.422;14.912;2022-08-03T12:30:14;99103.91;;;31.15;33.61
66627;BME280;53498;50.422;14.912;2022-08-03T12:32:42;99105.25;;;31.41;31.95
66627;BME280;53498;50.422;14.912;2022-08-03T12:35:08;99103.44;;;31.30;31.67
66627;BME280;53498;50.422;14.912;2022-08-03T12:37:35;99097.91;;;31.43;31.96
66627;BME280;53498;50.422;14.912;2022-08-03T12:40:02;99098.47;;;31.37;32.33
66627;BME280;53498;50.422;14.912;2022-08-03T12:42:34;99105.13;;;31.64;32.63
66627;BME280;53498;50.422;14.912;2022-08-03T12:45:24;99100.63;;;31.74;31.87
66627;BME280;53498;50.422;14.912;2022-08-03T12:47:55;99089.84;;;31.43;32.36
66627;BME280;53498;50.422;14.912;2022-08-03T12:50:29;99088.28;;;31.08;32.42
66627;BME280;53498;50.422;14.912;2022-08-03T12:52:55;99090.41;;;31.26;32.77
66627;BME280;53498;50.422;14.912;2022-08-03T12:55:22;99089.84;;;31.43;33.20
66627;BME280;53498;50.422;14.912;2022-08-03T12:57:48;99081.34;;;31.38;33.54
66627;BME280;53498;50.422;14.912;2022-08-03T13:00:16;99092.44;;;31.13;32.61
66627;BME280;53498;50.422;14.912;2022-08-03T13:02:42;99091.41;;;30.93;33.83
66627;BME280;53498;50.422;14.912;2022-08-03T13:05:10;99090.34;;;31.16;33.60
66627;BME280;53498;50.422;14.912;2022-08-03T13:07:44;99087.72;;;31.26;33.20
66627;BME280;53498;50.422;14.912;2022-08-03T13:10:27;99082.97;;;31.50;33.57
66627;BME280;53498;50.422;14.912;2022-08-03T13:12:53;99093.28;;;31.13;32.57
66627;BME280;53498;50.422;14.912;2022-08-03T13:15:18;99091.81;;;30.88;33.73
66627;BME280;53498;50.422;14.912;2022-08-03T13:17:44;99081.47;;;31.04;33.24
66627;BME280;53498;50.422;14.912;2022-08-03T13:20:09;99085.22;;;31.13;32.91
66627;BME280;53498;50.422;14.912;2022-08-03T13:22:35;99073.38;;;31.37;33.06
66627;BME280;53498;50.422;14.912;2022-08-03T13:25:01;99081.03;;;31.20;31.98
66627;BME280;53498;50.422;14.912;2022-08-03T13:27:28;99075.59;;;31.31;32.80